sensor_id;sensor_type;location;lat;lon;timestamp;temperature;humidity
15821;DHT22;8011;51.650;7.240;2022-10-20T03:02:42;7.80;99.90
15821;DHT22;8011;51.650;7.240;2022-10-20T03:05:07;7.80;99.90
15821;DHT22;8011;51.650;7.240;2022-10-20T03:07:33;7.80;99.90
15821;DHT22;8011;51.650;7.240;2022-10-20T03:09:59;7.80;99.90
15821;DHT22;8011;51.650;7.240;2022-10-20T03:12:24;7.80;99.90
15821;DHT22;8011;51.650;7.240;2022-10-20T03:14:50;7.80;99.90
15821;DHT22;8011;51.650;7.240;2022-10-20T03:17:16;7.80;99.90
15821;DHT22;8011;51.650;7.240;2022-10-20T03:19:41;7.70;99.90
15821;DHT22;8011;51.650;7.240;2022-10-20T03:22:07;7.80;99.90
15821;DHT22;8011;51.650;7.240;2022-10-20T03:24:33;7.80;99.90
15821;DHT22;8011;51.650;7.240;2022-10-20T03:26:58;7.70;99.90
15821;DHT22;8011;51.650;7.240;2022-10-20T03:29:24;7.80;99.90
15821;DHT22;8011;51.650;7.240;2022-10-20T03:31:49;7.70;99.90
15821;DHT22;8011;51.650;7.240;2022-10-20T03:34:15;7.80;99.90
15821;DHT22;8011;51.650;7.240;2022-10-20T03:36:41;7.80;99.90
15821;DHT22;8011;51.650;7.240;2022-10-20T03:39:06;7.70;99.90
15821;DHT22;8011;51.650;7.240;2022-10-20T03:41:32;7.80;99.90
15821;DHT22;8011;51.650;7.240;2022-10-20T03:43:57;7.80;99.90
15821;DHT22;8011;51.650;7.240;2022-10-20T03:46:23;7.80;99.90
15821;DHT22;8011;51.650;7.240;2022-10-20T03:48:49;7.80;99.90
15821;DHT22;8011;51.650;7.240;2022-10-20T03:51:14;7.80;99.90
15821;DHT22;8011;51.650;7.240;2022-10-20T03:53:40;7.80;99.90
15821;DHT22;8011;51.650;7.240;2022-10-20T03:56:08;7.80;99.90
15821;DHT22;8011;51.650;7.240;2022-10-20T03:58:34;7.80;99.90
15821;DHT22;8011;51.650;7.240;2022-10-20T04:01:00;7.70;99.90
15821;DHT22;8011;51.650;7.240;2022-10-20T04:03:27;7.70;99.90
15821;DHT22;8011;51.650;7.240;2022-10-20T04:05:52;7.70;99.90
15821;DHT22;8011;51.650;7.240;2022-10-20T04:08:18;7.70;99.90
15821;DHT22;8011;51.650;7.240;2022-10-20T04:10:44;7.80;99.90
15821;DHT22;8011;51.650;7.240;2022-10-20T04:13:09;7.80;99.90
15821;DHT22;8011;51.650;7.240;2022-10-20T04:15:35;7.80;99.90
15821;DHT22;8011;51.650;7.240;2022-10-20T04:18:00;7.80;99.90
15821;DHT22;8011;51.650;7.240;2022-10-20T04:20:26;7.80;99.90
15821;DHT22;8011;51.650;7.240;2022-10-20T04:22:52;7.80;99.90
15821;DHT22;8011;51.650;7.240;2022-10-20T04:25:17;7.70;99.90
15821;DHT22;8011;51.650;7.240;2022-10-20T04:27:43;7.80;99.90
15821;DHT22;8011;51.650;7.240;2022-10-20T04:30:09;7.80;99.90
15821;DHT22;8011;51.650;7.240;2022-10-20T04:32:35;7.80;99.90
15821;DHT22;8011;51.650;7.240;2022-10-20T04:35:01;7.70;99.90
15821;DHT22;8011;51.650;7.240;2022-10-20T04:37:26;7.80;99.90
15821;DHT22;8011;51.650;7.240;2022-10-20T04:39:52;7.80;99.90
15821;DHT22;8011;51.650;7.240;2022-10-20T04:42:18;7.80;99.90
15821;DHT22;8011;51.650;7.240;2022-10-20T04:44:44;7.70;99.90
15821;DHT22;8011;51.650;7.240;2022-10-20T04:47:10;7.80;99.90
15821;DHT22;8011;51.650;7.240;2022-10-20T04:49:36;7.80;99.90
15821;DHT22;8011;51.650;7.240;2022-10-20T04:52:02;7.80;99.90
15821;DHT22;8011;51.650;7.240;2022-10-20T04:54:28;7.80;99.90
15821;DHT22;8011;51.650;7.240;2022-10-20T04:56:54;7.80;99.90
15821;DHT22;8011;51.650;7.240;2022-10-20T04:59:20;7.80;99.90
15821;DHT22;8011;51.650;7.240;2022-10-20T05:01:45;7.70;99.90
15821;DHT22;8011;51.650;7.240;2022-10-20T05:04:11;7.70;99.90
15821;DHT22;8011;51.650;7.240;2022-10-20T05:06:36;7.70;99.90
15821;DHT22;8011;51.650;7.240;2022-10-20T05:09:04;7.70;99.90
15821;DHT22;8011;51.650;7.240;2022-10-20T05:11:34;7.70;99.90
15821;DHT22;8011;51.650;7.240;2022-10-20T05:14:00;7.70;99.90
15821;DHT22;8011;51.650;7.240;2022-10-20T05:16:26;7.80;99.90
15821;DHT22;8011;51.650;7.240;2022-10-20T05:18:53;7.80;99.90
15821;DHT22;8011;51.650;7.240;2022-10-20T05:21:22;7.70;99.90
15821;DHT22;8011;51.650;7.240;2022-10-20T05:23:53;7.80;99.90
15821;DHT22;8011;51.650;7.240;2022-10-20T05:26:20;7.80;99.90
15821;DHT22;8011;51.650;7.240;2022-10-20T05:28:48;7.70;99.90
15821;DHT22;8011;51.650;7.240;2022-10-20T05:31:15;7.70;99.90
15821;DHT22;8011;51.650;7.240;2022-10-20T05:33:46;7.70;99.90
15821;DHT22;8011;51.650;7.240;2022-10-20T05:36:14;7.70;99.90
15821;DHT22;8011;51.650;7.240;2022-10-20T05:38:40;7.70;99.90
15821;DHT22;8011;51.650;7.240;2022-10-20T05:41:11;7.70;99.90
15821;DHT22;8011;51.650;7.240;2022-10-20T05:43:38;7.70;99.90
15821;DHT22;8011;51.650;7.240;2022-10-20T05:46:04;7.70;99.90
15821;DHT22;8011;51.650;7.240;2022-10-20T05:48:30;7.70;99.90
15821;DHT22;8011;51.650;7.240;2022-10-20T05:51:10;7.80;99.90
15821;DHT22;8011;51.650;7.240;2022-10-20T05:53:36;7.80;99.90
15821;DHT22;8011;51.650;7.240;2022-10-20T05:56:07;7.80;99.90
15821;DHT22;8011;51.650;7.240;2022-10-20T05:58:33;7.80;99.90
15821;DHT22;8011;51.650;7.240;2022-10-20T06:03:31;7.80;99.90
15821;DHT22;8011;51.650;7.240;2022-10-20T06:05:58;7.80;99.90
15821;DHT22;8011;51.650;7.240;2022-10-20T06:08:24;7.80;99.90
15821;DHT22;8011;51.650;7.240;2022-10-20T06:10:49;7.80;99.90
15821;DHT22;8011;51.650;7.240;2022-10-20T06:13:15;7.80;99.90
15821;DHT22;8011;51.650;7.240;2022-10-20T06:15:41;7.80;99.90
15821;DHT22;8011;51.650;7.240;2022-10-20T06:18:06;7.90;99.90
15821;DHT22;8011;51.650;7.240;2022-10-20T06:20:32;7.90;99.90
15821;DHT22;8011;51.650;7.240;2022-10-20T06:22:58;7.90;99.90
15821;DHT22;8011;51.650;7.240;2022-10-20T06:25:24;7.90;99.90
15821;DHT22;8011;51.650;7.240;2022-10-20T06:27:49;7.90;99.90
15821;DHT22;8011;51.650;7.240;2022-10-20T06:30:15;7.80;99.90
15821;DHT22;8011;51.650;7.240;2022-10-20T06:32:40;7.90;99.90
15821;DHT22;8011;51.650;7.240;2022-10-20T06:35:06;7.90;99.90
15821;DHT22;8011;51.650;7.240;2022-10-20T06:37:32;7.90;99.90
15821;DHT22;8011;51.650;7.240;2022-10-20T06:39:58;7.90;99.90
15821;DHT22;8011;51.650;7.240;2022-10-20T06:42:23;8.00;99.90
15821;DHT22;8011;51.650;7.240;2022-10-20T06:44:49;8.00;99.90
15821;DHT22;8011;51.650;7.240;2022-10-20T06:47:14;8.00;99.90
15821;DHT22;8011;51.650;7.240;2022-10-20T06:49:40;8.00;99.90
15821;DHT22;8011;51.650;7.240;2022-10-20T06:52:06;8.00;99.90
15821;DHT22;8011;51.650;7.240;2022-10-20T06:54:31;8.00;99.90
15821;DHT22;8011;51.650;7.240;2022-10-20T06:56:57;8.10;99.90
15821;DHT22;8011;51.650;7.240;2022-10-20T06:59:22;8.10;99.90
15821;DHT22;8011;51.650;7.240;2022-10-20T07:01:48;8.10;99.90
15821;DHT22;8011;51.650;7.240;2022-10-20T07:04:14;8.10;99.90
15821;DHT22;8011;51.650;7.240;2022-10-20T07:06:42;8.10;99.90
15821;DHT22;8011;51.650;7.240;2022-10-20T07:09:12;8.10;99.90
15821;DHT22;8011;51.650;7.240;2022-10-20T07:11:38;8.10;99.90
15821;DHT22;8011;51.650;7.240;2022-10-20T07:14:04;8.10;99.90
15821;DHT22;8011;51.650;7.240;2022-10-20T07:16:32;8.10;99.90
15821;DHT22;8011;51.650;7.240;2022-10-20T07:18:59;8.20;99.90
15821;DHT22;8011;51.650;7.240;2022-10-20T07:21:26;8.20;99.90
15821;DHT22;8011;51.650;7.240;2022-10-20T07:23:52;8.20;99.90
15821;DHT22;8011;51.650;7.240;2022-10-20T07:26:25;8.20;99.90
15821;DHT22;8011;51.650;7.240;2022-10-20T07:28:57;8.30;99.90
15821;DHT22;8011;51.650;7.240;2022-10-20T07:31:35;8.30;99.90
15821;DHT22;8011;51.650;7.240;2022-10-20T07:34:02;8.40;99.90
15821;DHT22;8011;51.650;7.240;2022-10-20T07:36:29;8.40;99.90
15821;DHT22;8011;51.650;7.240;2022-10-20T07:38:57;8.40;99.90
15821;DHT22;8011;51.650;7.240;2022-10-20T07:41:24;8.50;99.90
15821;DHT22;8011;51.650;7.240;2022-10-20T07:43:50;8.50;99.90
15821;DHT22;8011;51.650;7.240;2022-10-20T07:46:16;8.50;99.90
15821;DHT22;8011;51.650;7.240;2022-10-20T07:48:42;8.50;99.90
15821;DHT22;8011;51.650;7.240;2022-10-20T07:53:47;8.60;99.90
15821;DHT22;8011;51.650;7.240;2022-10-20T07:56:13;8.60;99.90
15821;DHT22;8011;51.650;7.240;2022-10-20T07:58:39;8.60;99.90
15821;DHT22;8011;51.650;7.240;2022-10-20T08:01:05;8.70;99.90
15821;DHT22;8011;51.650;7.240;2022-10-20T08:03:30;8.70;99.90
15821;DHT22;8011;51.650;7.240;2022-10-20T08:05:56;8.70;99.90
15821;DHT22;8011;51.650;7.240;2022-10-20T08:08:22;8.80;99.90
15821;DHT22;8011;51.650;7.240;2022-10-20T08:10:47;8.90;99.90
15821;DHT22;8011;51.650;7.240;2022-10-20T08:13:13;8.90;99.90
15821;DHT22;8011;51.650;7.240;2022-10-20T08:15:39;9.00;99.90
15821;DHT22;8011;51.650;7.240;2022-10-20T08:18:05;9.00;99.90
15821;DHT22;8011;51.650;7.240;2022-10-20T08:20:30;9.10;99.90
15821;DHT22;8011;51.650;7.240;2022-10-20T08:22:57;9.20;99.90
15821;DHT22;8011;51.650;7.240;2022-10-20T08:25:23;9.20;99.90
15821;DHT22;8011;51.650;7.240;2022-10-20T08:27:48;9.30;99.90
15821;DHT22;8011;51.650;7.240;2022-10-20T08:30:14;9.40;99.90
15821;DHT22;8011;51.650;7.240;2022-10-20T08:32:40;9.50;99.90
15821;DHT22;8011;51.650;7.240;2022-10-20T08:35:06;9.60;99.90
15821;DHT22;8011;51.650;7.240;2022-10-20T08:37:32;9.60;99.90
15821;DHT22;8011;51.650;7.240;2022-10-20T08:39:58;9.70;99.90
15821;DHT22;8011;51.650;7.240;2022-10-20T08:42:24;9.80;99.90
15821;DHT22;8011;51.650;7.240;2022-10-20T08:44:54;9.90;99.90
15821;DHT22;8011;51.650;7.240;2022-10-20T08:47:35;10.00;99.90
15821;DHT22;8011;51.650;7.240;2022-10-20T08:50:05;10.00;99.90
15821;DHT22;8011;51.650;7.240;2022-10-20T08:52:32;10.10;99.90
15821;DHT22;8011;51.650;7.240;2022-10-20T08:54:58;10.20;99.90
15821;DHT22;8011;51.650;7.240;2022-10-20T08:57:29;10.30;99.90
15821;DHT22;8011;51.650;7.240;2022-10-20T09:00:06;10.30;99.90
15821;DHT22;8011;51.650;7.240;2022-10-20T09:02:36;10.40;99.90
15821;DHT22;8011;51.650;7.240;2022-10-20T09:05:04;10.40;99.90
15821;DHT22;8011;51.650;7.240;2022-10-20T09:07:33;10.50;99.90
15821;DHT22;8011;51.650;7.240;2022-10-20T09:12:47;10.70;99.90
15821;DHT22;8011;51.650;7.240;2022-10-20T09:15:15;10.70;99.90
15821;DHT22;8011;51.650;7.240;2022-10-20T09:17:57;10.80;99.90
15821;DHT22;8011;51.650;7.240;2022-10-20T09:20:37;10.90;99.90
15821;DHT22;8011;51.650;7.240;2022-10-20T09:23:13;11.00;99.90
15821;DHT22;8011;51.650;7.240;2022-10-20T09:25:40;11.10;99.90
15821;DHT22;8011;51.650;7.240;2022-10-20T09:28:25;11.10;99.90
15821;DHT22;8011;51.650;7.240;2022-10-20T09:30:53;11.20;99.90
15821;DHT22;8011;51.650;7.240;2022-10-20T09:33:21;11.20;99.90
15821;DHT22;8011;51.650;7.240;2022-10-20T09:35:48;11.40;99.90
15821;DHT22;8011;51.650;7.240;2022-10-20T09:38:27;11.40;99.90
15821;DHT22;8011;51.650;7.240;2022-10-20T09:43:19;11.50;99.90
15821;DHT22;8011;51.650;7.240;2022-10-20T09:45:58;11.60;99.90
15821;DHT22;8011;51.650;7.240;2022-10-20T09:48:27;11.70;99.90
15821;DHT22;8011;51.650;7.240;2022-10-20T09:50:55;11.70;99.90
15821;DHT22;8011;51.650;7.240;2022-10-20T09:53:28;11.90;99.90
15821;DHT22;8011;51.650;7.240;2022-10-20T09:55:56;11.90;99.90
15821;DHT22;8011;51.650;7.240;2022-10-20T09:58:27;11.90;99.90
15821;DHT22;8011;51.650;7.240;2022-10-20T10:03:41;12.10;99.90
15821;DHT22;8011;51.650;7.240;2022-10-20T10:09:26;12.20;99.90
15821;DHT22;8011;51.650;7.240;2022-10-20T10:14:30;12.30;99.90
15821;DHT22;8011;51.650;7.240;2022-10-20T10:16:58;12.30;99.90
15821;DHT22;8011;51.650;7.240;2022-10-20T10:19:28;12.30;99.90
15821;DHT22;8011;51.650;7.240;2022-10-20T10:21:56;12.30;99.90
15821;DHT22;8011;51.650;7.240;2022-10-20T10:24:43;12.40;99.90
15821;DHT22;8011;51.650;7.240;2022-10-20T10:29:54;12.60;99.90
15821;DHT22;8011;51.650;7.240;2022-10-20T10:32:27;12.70;99.90
15821;DHT22;8011;51.650;7.240;2022-10-20T10:37:48;12.80;99.90
15821;DHT22;8011;51.650;7.240;2022-10-20T10:50:46;13.10;99.90
15821;DHT22;8011;51.650;7.240;2022-10-20T10:53:22;13.10;99.90
15821;DHT22;8011;51.650;7.240;2022-10-20T10:58:44;13.20;99.90
15821;DHT22;8011;51.650;7.240;2022-10-20T11:21:27;13.70;99.90
15821;DHT22;8011;51.650;7.240;2022-10-20T11:24:15;13.80;99.90
15821;DHT22;8011;51.650;7.240;2022-10-20T11:26:51;13.90;99.90
15821;DHT22;8011;51.650;7.240;2022-10-20T11:29:43;14.00;99.90
15821;DHT22;8011;51.650;7.240;2022-10-20T11:42:49;14.40;99.90
15821;DHT22;8011;51.650;7.240;2022-10-20T11:45:30;14.40;99.90
15821;DHT22;8011;51.650;7.240;2022-10-20T11:48:03;14.50;99.90
15821;DHT22;8011;51.650;7.240;2022-10-20T11:50:31;14.50;99.90
15821;DHT22;8011;51.650;7.240;2022-10-20T11:53:13;14.50;99.90
15821;DHT22;8011;51.650;7.240;2022-10-20T12:12:33;14.60;99.90
15821;DHT22;8011;51.650;7.240;2022-10-20T12:15:02;14.60;99.90
15821;DHT22;8011;51.650;7.240;2022-10-20T12:17:35;14.70;99.90
15821;DHT22;8011;51.650;7.240;2022-10-20T12:22:53;14.70;99.90
15821;DHT22;8011;51.650;7.240;2022-10-20T12:33:40;14.70;99.90
15821;DHT22;8011;51.650;7.240;2022-10-20T12:38:45;14.70;99.90
15821;DHT22;8011;51.650;7.240;2022-10-20T12:41:43;14.60;99.90
15821;DHT22;8011;51.650;7.240;2022-10-20T12:44:17;14.60;99.90
15821;DHT22;8011;51.650;7.240;2022-10-20T12:47:02;14.60;99.90
15821;DHT22;8011;51.650;7.240;2022-10-20T12:49:41;14.60;99.90
15821;DHT22;8011;51.650;7.240;2022-10-20T12:52:22;14.60;99.90
15821;DHT22;8011;51.650;7.240;2022-10-20T12:54:56;14.60;99.90
15821;DHT22;8011;51.650;7.240;2022-10-20T12:59:55;14.50;99.90
15821;DHT22;8011;51.650;7.240;2022-10-20T13:17:59;14.50;99.90
15821;DHT22;8011;51.650;7.240;2022-10-20T13:25:56;14.40;99.90
15821;DHT22;8011;51.650;7.240;2022-10-20T13:28:25;14.50;99.90
15821;DHT22;8011;51.650;7.240;2022-10-20T13:44:01;14.50;99.90
15821;DHT22;8011;51.650;7.240;2022-10-20T13:49:41;14.50;99.90
15821;DHT22;8011;51.650;7.240;2022-10-20T13:52:12;14.50;99.90
15821;DHT22;8011;51.650;7.240;2022-10-20T13:54:47;14.50;99.90
15821;DHT22;8011;51.650;7.240;2022-10-20T13:57:24;14.50;99.90
15821;DHT22;8011;51.650;7.240;2022-10-20T14:00:13;14.50;99.90
15821;DHT22;8011;51.650;7.240;2022-10-20T14:02:40;14.60;99.90
15821;DHT22;8011;51.650;7.240;2022-10-20T14:05:12;14.50;99.90
15821;DHT22;8011;51.650;7.240;2022-10-20T14:07:43;14.60;99.90
15821;DHT22;8011;51.650;7.240;2022-10-20T14:12:55;14.70;99.90
15821;DHT22;8011;51.650;7.240;2022-10-20T14:15:33;14.70;99.90
15821;DHT22;8011;51.650;7.240;2022-10-20T14:18:05;14.80;99.90
15821;DHT22;8011;51.650;7.240;2022-10-20T14:20:33;14.80;99.90
15821;DHT22;8011;51.650;7.240;2022-10-20T14:23:02;14.90;99.90
15821;DHT22;8011;51.650;7.240;2022-10-20T14:25:30;14.90;99.90
15821;DHT22;8011;51.650;7.240;2022-10-20T14:27:56;15.00;99.90
15821;DHT22;8011;51.650;7.240;2022-10-20T14:30:23;15.00;99.90
15821;DHT22;8011;51.650;7.240;2022-10-20T14:32:51;15.00;99.90
15821;DHT22;8011;51.650;7.240;2022-10-20T14:35:40;15.00;99.90
15821;DHT22;8011;51.650;7.240;2022-10-20T14:38:15;15.00;99.90
15821;DHT22;8011;51.650;7.240;2022-10-20T14:40:56;15.10;99.90
15821;DHT22;8011;51.650;7.240;2022-10-20T14:43:38;15.10;99.90
15821;DHT22;8011;51.650;7.240;2022-10-20T14:46:07;15.10;99.90
15821;DHT22;8011;51.650;7.240;2022-10-20T14:48:43;15.20;99.90
15821;DHT22;8011;51.650;7.240;2022-10-20T14:54:33;15.20;99.90
15821;DHT22;8011;51.650;7.240;2022-10-20T14:59:54;15.30;99.90
15821;DHT22;8011;51.650;7.240;2022-10-20T15:02:38;15.30;99.90
15821;DHT22;8011;51.650;7.240;2022-10-20T15:07:51;15.40;99.90
15821;DHT22;8011;51.650;7.240;2022-10-20T15:10:20;15.40;99.90
15821;DHT22;8011;51.650;7.240;2022-10-20T15:12:48;15.40;99.90
15821;DHT22;8011;51.650;7.240;2022-10-20T15:15:20;15.40;99.90
15821;DHT22;8011;51.650;7.240;2022-10-20T15:17:51;15.40;99.90
15821;DHT22;8011;51.650;7.240;2022-10-20T15:20:38;15.40;99.90
15821;DHT22;8011;51.650;7.240;2022-10-20T15:25:41;15.50;99.90
15821;DHT22;8011;51.650;7.240;2022-10-20T15:28:49;15.50;99.90
15821;DHT22;8011;51.650;7.240;2022-10-20T15:31:21;15.40;99.90
15821;DHT22;8011;51.650;7.240;2022-10-20T15:33:54;15.50;99.90
15821;DHT22;8011;51.650;7.240;2022-10-20T15:36:22;15.50;99.90
15821;DHT22;8011;51.650;7.240;2022-10-20T15:38:52;15.50;99.90
15821;DHT22;8011;51.650;7.240;2022-10-20T15:41:21;15.50;99.90
15821;DHT22;8011;51.650;7.240;2022-10-20T15:43:47;15.50;99.90
15821;DHT22;8011;51.650;7.240;2022-10-20T15:46:14;15.50;99.90
15821;DHT22;8011;51.650;7.240;2022-10-20T15:48:41;15.50;99.90
15821;DHT22;8011;51.650;7.240;2022-10-20T15:51:27;15.50;99.90
15821;DHT22;8011;51.650;7.240;2022-10-20T15:53:58;15.50;99.90
15821;DHT22;8011;51.650;7.240;2022-10-20T15:56:24;15.60;99.90
15821;DHT22;8011;51.650;7.240;2022-10-20T15:58:50;15.50;99.90
15821;DHT22;8011;51.650;7.240;2022-10-20T16:01:17;15.50;99.90
15821;DHT22;8011;51.650;7.240;2022-10-20T16:03:46;15.50;99.90
15821;DHT22;8011;51.650;7.240;2022-10-20T16:06:16;15.50;99.90
15821;DHT22;8011;51.650;7.240;2022-10-20T16:08:44;15.50;99.90
15821;DHT22;8011;51.650;7.240;2022-10-20T16:11:13;15.50;99.90
15821;DHT22;8011;51.650;7.240;2022-10-20T16:13:39;15.50;99.90
15821;DHT22;8011;51.650;7.240;2022-10-20T16:16:06;15.50;99.90
15821;DHT22;8011;51.650;7.240;2022-10-20T16:18:32;15.50;99.90
15821;DHT22;8011;51.650;7.240;2022-10-20T16:21:03;15.50;99.90
15821;DHT22;8011;51.650;7.240;2022-10-20T16:23:34;15.40;99.90
15821;DHT22;8011;51.650;7.240;2022-10-20T16:26:04;15.40;99.90
15821;DHT22;8011;51.650;7.240;2022-10-20T16:28:30;15.40;99.90
15821;DHT22;8011;51.650;7.240;2022-10-20T16:31:07;15.30;99.90
15821;DHT22;8011;51.650;7.240;2022-10-20T16:33:39;15.30;99.90
15821;DHT22;8011;51.650;7.240;2022-10-20T16:36:07;15.30;99.90
15821;DHT22;8011;51.650;7.240;2022-10-20T16:38:33;15.20;99.90
15821;DHT22;8011;51.650;7.240;2022-10-20T16:41:04;15.20;99.90
15821;DHT22;8011;51.650;7.240;2022-10-20T16:43:32;15.20;99.90
15821;DHT22;8011;51.650;7.240;2022-10-20T16:46:03;15.20;99.90
15821;DHT22;8011;51.650;7.240;2022-10-20T16:48:37;15.20;99.90
15821;DHT22;8011;51.650;7.240;2022-10-20T16:51:07;15.20;99.90
15821;DHT22;8011;51.650;7.240;2022-10-20T16:53:34;15.20;99.90
15821;DHT22;8011;51.650;7.240;2022-10-20T16:56:00;15.20;99.90
15821;DHT22;8011;51.650;7.240;2022-10-20T16:58:26;15.20;99.90
15821;DHT22;8011;51.650;7.240;2022-10-20T17:01:00;15.10;99.90
15821;DHT22;8011;51.650;7.240;2022-10-20T17:03:26;15.10;99.90
15821;DHT22;8011;51.650;7.240;2022-10-20T17:05:54;15.10;99.90
15821;DHT22;8011;51.650;7.240;2022-10-20T17:08:20;15.10;99.90
15821;DHT22;8011;51.650;7.240;2022-10-20T17:10:46;15.10;99.90
15821;DHT22;8011;51.650;7.240;2022-10-20T17:13:12;15.00;99.90
15821;DHT22;8011;51.650;7.240;2022-10-20T17:15:37;15.00;99.90
15821;DHT22;8011;51.650;7.240;2022-10-20T17:18:03;15.00;99.90
15821;DHT22;8011;51.650;7.240;2022-10-20T17:20:29;14.90;99.90
15821;DHT22;8011;51.650;7.240;2022-10-20T17:22:55;14.90;99.90
15821;DHT22;8011;51.650;7.240;2022-10-20T17:25:23;14.90;99.90
15821;DHT22;8011;51.650;7.240;2022-10-20T17:27:52;14.90;99.90
15821;DHT22;8011;51.650;7.240;2022-10-20T17:30:17;14.90;99.90
15821;DHT22;8011;51.650;7.240;2022-10-20T17:32:46;14.90;99.90
15821;DHT22;8011;51.650;7.240;2022-10-20T17:35:14;14.90;99.90
15821;DHT22;8011;51.650;7.240;2022-10-20T17:37:40;14.90;99.90
15821;DHT22;8011;51.650;7.240;2022-10-20T17:40:06;14.90;99.90
15821;DHT22;8011;51.650;7.240;2022-10-20T17:42:32;14.90;99.90
15821;DHT22;8011;51.650;7.240;2022-10-20T17:44:58;14.90;99.90
15821;DHT22;8011;51.650;7.240;2022-10-20T17:47:23;14.80;99.90
15821;DHT22;8011;51.650;7.240;2022-10-20T17:49:49;14.90;99.90
15821;DHT22;8011;51.650;7.240;2022-10-20T17:52:15;14.90;99.90
15821;DHT22;8011;51.650;7.240;2022-10-20T17:54:44;14.90;99.90
15821;DHT22;8011;51.650;7.240;2022-10-20T17:57:12;14.90;99.90
15821;DHT22;8011;51.650;7.240;2022-10-20T17:59:40;14.90;99.90
15821;DHT22;8011;51.650;7.240;2022-10-20T18:02:08;14.90;99.90
15821;DHT22;8011;51.650;7.240;2022-10-20T18:04:34;14.90;99.90
15821;DHT22;8011;51.650;7.240;2022-10-20T18:07:00;14.80;99.90
15821;DHT22;8011;51.650;7.240;2022-10-20T18:09:26;14.80;99.90
15821;DHT22;8011;51.650;7.240;2022-10-20T18:11:51;14.80;99.90
15821;DHT22;8011;51.650;7.240;2022-10-20T18:14:18;14.70;99.90
15821;DHT22;8011;51.650;7.240;2022-10-20T18:16:43;14.70;99.90
15821;DHT22;8011;51.650;7.240;2022-10-20T18:19:14;14.70;99.90
15821;DHT22;8011;51.650;7.240;2022-10-20T18:21:41;14.70;99.90
15821;DHT22;8011;51.650;7.240;2022-10-20T18:24:10;14.70;99.90
15821;DHT22;8011;51.650;7.240;2022-10-20T18:26:37;14.70;99.90
15821;DHT22;8011;51.650;7.240;2022-10-20T18:29:05;14.70;99.90
15821;DHT22;8011;51.650;7.240;2022-10-20T18:31:33;14.70;99.90
15821;DHT22;8011;51.650;7.240;2022-10-20T18:34:01;14.70;99.90
15821;DHT22;8011;51.650;7.240;2022-10-20T18:36:28;14.70;99.90
15821;DHT22;8011;51.650;7.240;2022-10-20T18:38:54;14.70;99.90
15821;DHT22;8011;51.650;7.240;2022-10-20T18:41:25;14.70;99.90
15821;DHT22;8011;51.650;7.240;2022-10-20T18:43:56;14.70;99.90
15821;DHT22;8011;51.650;7.240;2022-10-20T18:46:30;14.80;99.90
15821;DHT22;8011;51.650;7.240;2022-10-20T18:48:56;14.80;99.90
15821;DHT22;8011;51.650;7.240;2022-10-20T18:51:22;14.70;99.90
15821;DHT22;8011;51.650;7.240;2022-10-20T18:53:51;14.70;99.90
15821;DHT22;8011;51.650;7.240;2022-10-20T18:56:19;14.70;99.90
15821;DHT22;8011;51.650;7.240;2022-10-20T18:59:00;14.70;99.90
15821;DHT22;8011;51.650;7.240;2022-10-20T19:01:28;14.70;99.90
15821;DHT22;8011;51.650;7.240;2022-10-20T19:03:55;14.70;99.90
15821;DHT22;8011;51.650;7.240;2022-10-20T19:06:26;14.70;99.90
15821;DHT22;8011;51.650;7.240;2022-10-20T19:08:55;14.70;99.90
15821;DHT22;8011;51.650;7.240;2022-10-20T19:11:23;14.70;99.90
15821;DHT22;8011;51.650;7.240;2022-10-20T19:13:49;14.70;99.90
15821;DHT22;8011;51.650;7.240;2022-10-20T19:16:17;14.60;99.90
15821;DHT22;8011;51.650;7.240;2022-10-20T19:18:48;14.60;99.90
15821;DHT22;8011;51.650;7.240;2022-10-20T19:21:14;14.70;99.90
15821;DHT22;8011;51.650;7.240;2022-10-20T19:23:43;14.60;99.90
15821;DHT22;8011;51.650;7.240;2022-10-20T19:26:19;14.70;99.90
15821;DHT22;8011;51.650;7.240;2022-10-20T19:28:52;14.70;99.90
15821;DHT22;8011;51.650;7.240;2022-10-20T19:31:44;14.60;99.90
15821;DHT22;8011;51.650;7.240;2022-10-20T19:34:20;14.70;99.90
15821;DHT22;8011;51.650;7.240;2022-10-20T19:36:46;14.70;99.90
15821;DHT22;8011;51.650;7.240;2022-10-20T19:39:22;14.70;99.90
15821;DHT22;8011;51.650;7.240;2022-10-20T19:41:49;14.70;99.90
15821;DHT22;8011;51.650;7.240;2022-10-20T19:44:15;14.70;99.90
15821;DHT22;8011;51.650;7.240;2022-10-20T19:46:54;14.70;99.90
15821;DHT22;8011;51.650;7.240;2022-10-20T19:49:21;14.80;99.90
15821;DHT22;8011;51.650;7.240;2022-10-20T19:51:48;14.70;99.90
15821;DHT22;8011;51.650;7.240;2022-10-20T19:54:16;14.70;99.90
15821;DHT22;8011;51.650;7.240;2022-10-20T19:56:42;14.70;99.90
15821;DHT22;8011;51.650;7.240;2022-10-20T19:59:08;14.70;99.90
15821;DHT22;8011;51.650;7.240;2022-10-20T20:01:35;14.80;99.90
15821;DHT22;8011;51.650;7.240;2022-10-20T20:04:01;14.80;99.90
15821;DHT22;8011;51.650;7.240;2022-10-20T20:06:28;14.80;99.90
15821;DHT22;8011;51.650;7.240;2022-10-20T20:09:00;14.80;99.90
15821;DHT22;8011;51.650;7.240;2022-10-20T20:11:28;14.80;99.90
15821;DHT22;8011;51.650;7.240;2022-10-20T20:13:57;14.80;99.90
15821;DHT22;8011;51.650;7.240;2022-10-20T20:16:24;14.80;99.90
15821;DHT22;8011;51.650;7.240;2022-10-20T20:18:50;14.90;99.90
15821;DHT22;8011;51.650;7.240;2022-10-20T20:21:17;14.80;99.90
15821;DHT22;8011;51.650;7.240;2022-10-20T20:23:42;14.80;99.90
15821;DHT22;8011;51.650;7.240;2022-10-20T20:26:08;14.80;99.90
15821;DHT22;8011;51.650;7.240;2022-10-20T20:28:34;14.80;99.90
15821;DHT22;8011;51.650;7.240;2022-10-20T20:31:08;14.80;99.90
15821;DHT22;8011;51.650;7.240;2022-10-20T20:33:34;14.80;99.90
15821;DHT22;8011;51.650;7.240;2022-10-20T20:36:03;14.80;99.90
15821;DHT22;8011;51.650;7.240;2022-10-20T20:38:34;14.70;99.90
15821;DHT22;8011;51.650;7.240;2022-10-20T20:41:02;14.70;99.90
15821;DHT22;8011;51.650;7.240;2022-10-20T20:43:28;14.70;99.90
15821;DHT22;8011;51.650;7.240;2022-10-20T20:45:54;14.60;99.90
15821;DHT22;8011;51.650;7.240;2022-10-20T20:48:20;14.60;99.90
15821;DHT22;8011;51.650;7.240;2022-10-20T20:50:56;14.60;99.90
15821;DHT22;8011;51.650;7.240;2022-10-20T20:53:23;14.60;99.90
15821;DHT22;8011;51.650;7.240;2022-10-20T20:58:19;14.60;99.90
15821;DHT22;8011;51.650;7.240;2022-10-20T21:00:44;14.60;99.90
15821;DHT22;8011;51.650;7.240;2022-10-20T21:03:10;14.60;99.90
15821;DHT22;8011;51.650;7.240;2022-10-20T21:05:36;14.60;99.90
15821;DHT22;8011;51.650;7.240;2022-10-20T21:08:02;14.60;99.90
15821;DHT22;8011;51.650;7.240;2022-10-20T21:10:28;14.60;99.90
15821;DHT22;8011;51.650;7.240;2022-10-20T21:12:53;14.60;99.90
15821;DHT22;8011;51.650;7.240;2022-10-20T21:15:20;14.60;99.90
15821;DHT22;8011;51.650;7.240;2022-10-20T21:17:45;14.60;99.90
15821;DHT22;8011;51.650;7.240;2022-10-20T21:20:11;14.60;99.90
15821;DHT22;8011;51.650;7.240;2022-10-20T21:22:37;14.50;99.90
15821;DHT22;8011;51.650;7.240;2022-10-20T21:25:03;14.60;99.90
15821;DHT22;8011;51.650;7.240;2022-10-20T21:27:28;14.60;99.90
15821;DHT22;8011;51.650;7.240;2022-10-20T21:29:54;14.60;99.90
15821;DHT22;8011;51.650;7.240;2022-10-20T21:32:20;14.60;99.90
15821;DHT22;8011;51.650;7.240;2022-10-20T21:34:45;14.60;99.90
15821;DHT22;8011;51.650;7.240;2022-10-20T21:37:11;14.70;99.90
15821;DHT22;8011;51.650;7.240;2022-10-20T21:39:37;14.60;99.90